Forside
METAR-TAF:

METAR-TAF

Lufthavne :

Stanton, Minnesota, USA

Breddekreds: 44-28-32N, længdekreds: 093-00-59W, højde: 280 m

Aktuelle vejr

Denne rapport blev lavet for 14 minutter siden, kl. 12:35 UTC
Vind 8 kt fra sydøst
Temperatur 2°C
Fugtighed 87%
Tryk 1015 hPa
Sigt: 16.1 km
Brudte skyer i en højde af 2600 ft
Overskyet i en højde af 3100 ft

METAR: KSYN 241235Z AUTO 13008KT 10SM BKN026 OVC031 02/00 A2998 RMK AO2 T00151001

Tid: 06:49 (12:49 UTC)


TAF: fraværende

Vejrobservationer og prognoser fra mere end 4000 lufthavne (METAR og TAF).

De gule og røde prikker repræsenterer de meteorologiske stationer.

Flyt musen over at se navnet på stationen.

Så klik over at se vejr observationer og prognoser.

At skifte det kort: Klik på de grønne knapper med et sort kors for at zoome ind; på den grønne knap med en bindestreg for at zoome ud; eller på de grønne pile for tilstødende kort.


METAR-TAF: